Time;durP1;ratioP1;P1;durP2;ratioP2;P2;SDS_P1;SDS_P2;PMS_P1;PMS_P2;Temp;Humidity;BMP_temperature;BMP_pressure;BME280_temperature;BME280_humidity;BME280_pressure;Samples;Min_cycle;Max_cycle;Signal;HPM_P1;HPM_P2
2022/04/29 00:00:41;;;;;;;13.90;9.70;;;11.10;92.30;;;;;;5060763;28;20472;-81
2022/04/29 00:03:08;;;;;;;11.93;9.55;;;11.00;92.40;;;;;;5077799;28;20024;-81
2022/04/29 00:05:35;;;;;;;15.00;10.00;;;10.90;92.60;;;;;;5055096;28;20025;-81
2022/04/29 00:08:02;;;;;;;13.90;8.70;;;10.90;92.70;;;;;;5056491;28;20499;-81
2022/04/29 00:10:28;;;;;;;12.43;9.90;;;10.90;92.90;;;;;;5070464;28;20028;-81
2022/04/29 00:12:54;;;;;;;15.63;9.95;;;10.80;93.00;;;;;;5066878;28;20035;-81
2022/04/29 00:15:20;;;;;;;15.00;10.85;;;10.70;93.00;;;;;;5055220;28;20418;-81
2022/04/29 00:17:47;;;;;;;13.27;9.55;;;10.70;93.20;;;;;;5058994;28;20040;-81
2022/04/29 00:20:13;;;;;;;16.65;11.02;;;10.70;93.20;;;;;;5065470;28;20039;-81
2022/04/29 00:22:39;;;;;;;13.68;10.65;;;10.60;93.30;;;;;;5061302;28;20474;-81
2022/04/29 00:25:06;;;;;;;14.70;10.13;;;10.50;93.50;;;;;;5076963;28;20027;-81
2022/04/29 00:27:32;;;;;;;15.55;9.63;;;10.50;93.50;;;;;;5079166;28;20587;-81
2022/04/29 00:29:57;;;;;;;15.07;10.18;;;10.50;93.70;;;;;;5069118;28;20039;-81
2022/04/29 00:32:23;;;;;;;14.77;10.63;;;10.50;93.80;;;;;;5058043;28;20028;-81
2022/04/29 00:34:49;;;;;;;15.07;11.45;;;10.40;93.80;;;;;;5056080;28;20032;-81
2022/04/29 00:37:15;;;;;;;13.95;9.98;;;10.40;93.90;;;;;;5064538;28;20380;-81
2022/04/29 00:39:41;;;;;;;11.63;9.90;;;10.30;94.00;;;;;;5072800;28;20024;-81
2022/04/29 00:42:15;;;;;;;17.67;11.25;;;10.30;94.10;;;;;;5065487;28;20081;-81
2022/04/29 00:44:42;;;;;;;13.13;10.00;;;10.30;94.20;;;;;;5076454;28;20031;-81
2022/04/29 00:47:13;;;;;;;16.65;11.23;;;10.20;94.30;;;;;;5062535;28;20031;-81
2022/04/29 00:49:39;;;;;;;16.15;10.27;;;10.20;94.40;;;;;;5064626;28;20028;-81
2022/04/29 00:52:12;;;;;;;14.48;9.95;;;10.20;94.40;;;;;;5058524;28;20481;-81
2022/04/29 00:54:40;;;;;;;20.73;10.70;;;10.20;94.60;;;;;;5082307;28;20454;-81
2022/04/29 00:57:09;;;;;;;16.88;10.27;;;10.10;94.60;;;;;;5052134;28;20123;-81
2022/04/29 00:59:42;;;;;;;14.45;10.10;;;10.20;94.60;;;;;;5068910;28;20365;-81
2022/04/29 01:02:09;;;;;;;16.02;10.77;;;10.10;94.70;;;;;;5058771;28;20129;-81
2022/04/29 01:04:45;;;;;;;12.70;9.40;;;10.10;94.70;;;;;;5059735;28;20020;-81
2022/04/29 01:07:11;;;;;;;12.65;9.85;;;10.10;94.80;;;;;;5068100;28;20473;-81
2022/04/29 01:09:36;;;;;;;15.02;10.55;;;10.10;94.90;;;;;;5067344;28;20021;-81
2022/04/29 01:12:02;;;;;;;13.27;10.30;;;10.00;94.90;;;;;;5066252;28;20517;-81
2022/04/29 01:14:28;;;;;;;16.40;10.45;;;10.00;95.00;;;;;;5072647;28;20027;-81
2022/04/29 01:16:57;;;;;;;15.68;10.77;;;10.00;95.00;;;;;;5067133;28;20530;-81
2022/04/29 01:19:23;;;;;;;14.82;9.77;;;10.00;95.00;;;;;;5066577;28;20132;-81
2022/04/29 01:21:50;;;;;;;15.05;9.85;;;10.00;95.10;;;;;;5051123;28;20100;-81
2022/04/29 01:24:16;;;;;;;17.58;10.65;;;9.90;95.20;;;;;;5058284;28;20031;-81
2022/04/29 01:26:41;;;;;;;16.85;10.85;;;9.90;95.40;;;;;;5064011;28;20039;-81
2022/04/29 01:29:08;;;;;;;16.42;11.30;;;9.90;95.30;;;;;;5071428;28;20411;-81
2022/04/29 01:31:35;;;;;;;19.17;10.63;;;9.80;95.30;;;;;;5062224;28;20021;-80
2022/04/29 01:34:01;;;;;;;14.98;10.43;;;9.80;95.40;;;;;;5066125;28;20384;-81
2022/04/29 01:36:27;;;;;;;15.77;11.13;;;9.80;95.40;;;;;;5047963;28;20377;-81
2022/04/29 01:38:52;;;;;;;18.00;10.57;;;9.70;95.70;;;;;;5054865;28;20032;-80
2022/04/29 01:41:18;;;;;;;15.55;10.70;;;9.70;95.50;;;;;;5059673;28;20305;-81
2022/04/29 01:43:44;;;;;;;19.58;10.95;;;9.70;95.70;;;;;;5077738;28;20077;-81
2022/04/29 01:46:10;;;;;;;16.65;10.43;;;9.60;95.70;;;;;;5066131;28;20028;-81
2022/04/29 01:48:38;;;;;;;13.45;9.27;;;9.60;95.80;;;;;;5051764;28;20378;-81
2022/04/29 01:51:06;;;;;;;18.75;11.27;;;9.60;95.80;;;;;;5059675;28;20021;-80
2022/04/29 01:53:33;;;;;;;15.73;11.00;;;9.50;95.90;;;;;;5066364;28;20526;-81
2022/04/29 01:55:59;;;;;;;15.60;10.93;;;9.50;95.90;;;;;;5052651;28;20105;-81
2022/04/29 01:58:24;;;;;;;16.23;10.52;;;9.40;96.00;;;;;;5062125;28;20445;-80
2022/04/29 02:00:50;;;;;;;16.92;11.20;;;9.30;96.10;;;;;;5061193;28;20028;-80
2022/04/29 02:03:15;;;;;;;19.02;11.38;;;9.20;96.10;;;;;;5063197;28;20032;-80
2022/04/29 02:05:41;;;;;;;16.75;11.27;;;9.20;96.40;;;;;;5059453;28;20039;-80
2022/04/29 02:08:07;;;;;;;15.18;10.60;;;9.10;96.50;;;;;;5057269;28;20028;-80
2022/04/29 02:10:32;;;;;;;15.77;10.88;;;9.10;96.60;;;;;;5055327;28;20086;-81
2022/04/29 02:12:58;;;;;;;14.45;11.18;;;9.00;96.70;;;;;;5076397;28;20024;-80
2022/04/29 02:15:24;;;;;;;19.60;11.38;;;9.00;96.80;;;;;;5064548;28;20024;-80
2022/04/29 02:17:49;;;;;;;16.50;11.07;;;9.00;96.70;;;;;;5056773;28;20564;-80
2022/04/29 02:20:15;;;;;;;16.08;11.63;;;9.00;96.80;;;;;;5056239;28;20036;-81
2022/04/29 02:22:40;;;;;;;18.98;11.25;;;9.00;96.90;;;;;;5053904;28;20115;-80
2022/04/29 02:25:07;;;;;;;15.85;11.07;;;9.00;97.10;;;;;;5066895;28;20387;-80
2022/04/29 02:27:33;;;;;;;18.88;10.82;;;8.90;96.90;;;;;;5062581;28;20067;-80
2022/04/29 02:29:58;;;;;;;15.48;11.15;;;8.90;96.90;;;;;;5064849;28;20099;-80
2022/04/29 02:32:24;;;;;;;19.55;10.57;;;8.90;96.90;;;;;;5057741;28;20044;-80
2022/04/29 02:34:50;;;;;;;15.77;11.35;;;8.90;96.90;;;;;;5057049;28;20056;-80
2022/04/29 02:37:16;;;;;;;16.35;11.20;;;8.90;96.90;;;;;;5057044;28;20432;-80
2022/04/29 02:39:42;;;;;;;15.05;11.65;;;8.90;97.00;;;;;;5068662;28;20118;-81
2022/04/29 02:42:07;;;;;;;16.83;11.02;;;8.80;97.00;;;;;;5067918;28;20025;-81
2022/04/29 02:44:33;;;;;;;17.05;11.82;;;8.80;97.00;;;;;;5062913;28;20037;-81
2022/04/29 02:47:08;;;;;;;17.00;11.63;;;8.80;97.00;;;;;;5062720;28;20033;-80
2022/04/29 02:49:38;;;;;;;19.38;10.95;;;8.80;97.00;;;;;;5057835;28;20479;-80
2022/04/29 02:52:13;;;;;;;16.60;10.82;;;8.70;97.00;;;;;;5061959;28;20021;-81
2022/04/29 02:54:40;;;;;;;15.15;10.98;;;8.70;97.00;;;;;;5066891;28;20111;-81
2022/04/29 02:57:06;;;;;;;12.75;10.10;;;8.70;97.10;;;;;;5068779;28;20021;-80
2022/04/29 02:59:32;;;;;;;15.90;10.00;;;8.70;97.10;;;;;;5035719;28;20021;-80
2022/04/29 03:01:58;;;;;;;13.68;10.30;;;8.70;97.10;;;;;;5037464;28;20095;-80
2022/04/29 03:04:24;;;;;;;14.27;9.73;;;8.70;97.00;;;;;;5030596;28;20450;-80
2022/04/29 03:06:49;;;;;;;20.65;10.82;;;8.70;97.00;;;;;;5055144;28;20028;-81
2022/04/29 03:09:15;;;;;;;14.80;11.02;;;8.70;97.00;;;;;;5051750;28;20339;-80
2022/04/29 03:11:40;;;;;;;18.65;10.40;;;8.70;96.90;;;;;;5040662;28;20575;-80
2022/04/29 03:14:06;;;;;;;15.07;10.82;;;8.60;96.90;;;;;;5041533;28;20037;-80
2022/04/29 03:16:32;;;;;;;16.60;10.45;;;8.60;97.10;;;;;;5031302;28;20033;-80
2022/04/29 03:18:58;;;;;;;16.42;10.30;;;8.60;96.90;;;;;;5038048;28;20033;-81
2022/04/29 03:21:24;;;;;;;15.02;9.82;;;8.60;97.00;;;;;;5051947;28;20029;-81
2022/04/29 03:23:50;;;;;;;15.23;10.95;;;8.50;97.00;;;;;;5043725;28;20120;-80
2022/04/29 03:26:16;;;;;;;18.27;11.07;;;8.50;97.10;;;;;;5038048;28;20119;-81
2022/04/29 03:28:41;;;;;;;13.35;10.43;;;8.50;97.00;;;;;;5050977;28;20029;-80
2022/04/29 03:31:07;;;;;;;14.77;10.35;;;8.40;97.00;;;;;;5048772;28;20029;-80
2022/04/29 03:33:33;;;;;;;16.67;10.85;;;8.40;97.00;;;;;;5046254;28;20029;-81
2022/04/29 03:35:59;;;;;;;15.38;10.88;;;8.40;97.10;;;;;;5062985;28;20454;-80
2022/04/29 03:38:25;;;;;;;14.60;10.57;;;8.30;97.10;;;;;;5046499;28;20029;-80
2022/04/29 03:40:51;;;;;;;15.82;10.70;;;8.30;97.10;;;;;;5048081;28;20492;-80
2022/04/29 03:43:17;;;;;;;18.38;11.00;;;8.20;97.20;;;;;;5037452;28;20021;-80
2022/04/29 03:45:43;;;;;;;16.80;10.38;;;8.20;97.30;;;;;;5046145;28;20068;-81
2022/04/29 03:48:10;;;;;;;18.10;10.23;;;8.20;97.30;;;;;;5037708;28;20036;-81
2022/04/29 03:50:35;;;;;;;16.83;10.02;;;8.10;97.50;;;;;;5053024;28;20434;-80
2022/04/29 03:53:03;;;;;;;21.92;11.23;;;8.10;97.60;;;;;;5037193;28;20053;-80
2022/04/29 03:55:33;;;;;;;17.90;11.52;;;8.10;97.60;;;;;;5058523;28;20412;-80
2022/04/29 03:58:02;;;;;;;15.77;10.60;;;8.10;97.60;;;;;;5041978;28;20033;-81
2022/04/29 04:00:32;;;;;;;19.25;10.75;;;8.10;97.60;;;;;;5036490;28;20029;-81
2022/04/29 04:02:59;;;;;;;14.23;11.23;;;8.10;97.60;;;;;;5034932;28;20038;-80
2022/04/29 04:05:25;;;;;;;14.70;11.38;;;8.10;97.60;;;;;;5052613;28;20033;-80
2022/04/29 04:07:52;;;;;;;17.08;10.73;;;8.10;97.70;;;;;;5046674;28;20474;-80
2022/04/29 04:10:17;;;;;;;13.38;9.93;;;8.20;97.70;;;;;;5031481;28;20091;-80
2022/04/29 04:12:49;;;;;;;17.52;10.10;;;8.20;97.60;;;;;;5042826;28;20029;-80
2022/04/29 04:15:16;;;;;;;13.02;9.93;;;8.20;97.60;;;;;;5049925;28;20113;-80
2022/04/29 04:17:43;;;;;;;14.90;10.55;;;8.20;97.60;;;;;;5055802;28;20025;-80
2022/04/29 04:20:11;;;;;;;18.60;10.82;;;8.20;97.60;;;;;;5040248;28;20497;-80
2022/04/29 04:22:37;;;;;;;16.73;10.98;;;8.20;97.60;;;;;;5044541;28;20029;-80
2022/04/29 04:25:04;;;;;;;17.38;9.60;;;8.20;97.60;;;;;;5048913;28;20028;-80
2022/04/29 04:27:30;;;;;;;13.95;10.68;;;8.30;97.60;;;;;;5045950;28;20485;-80
2022/04/29 04:29:57;;;;;;;15.18;10.88;;;8.30;97.50;;;;;;5050966;28;20052;-80
2022/04/29 04:32:22;;;;;;;16.05;11.40;;;8.40;97.50;;;;;;5047417;28;20104;-80
2022/04/29 04:34:50;;;;;;;15.63;10.85;;;8.50;97.50;;;;;;5054410;28;20167;-80
2022/04/29 04:37:17;;;;;;;16.58;11.43;;;8.50;97.50;;;;;;5035459;28;20074;-80
2022/04/29 04:39:44;;;;;;;18.70;10.82;;;8.60;97.40;;;;;;5038501;28;20026;-80
2022/04/29 04:42:10;;;;;;;15.68;10.55;;;8.70;97.40;;;;;;5044707;28;20024;-79
2022/04/29 04:44:36;;;;;;;12.88;9.77;;;8.70;97.30;;;;;;5035540;28;20020;-81
2022/04/29 04:47:05;;;;;;;16.27;9.82;;;8.80;97.30;;;;;;5052225;28;20106;-79
2022/04/29 04:49:31;;;;;;;14.75;10.75;;;8.90;97.10;;;;;;5038836;28;20040;-80
2022/04/29 04:51:57;;;;;;;17.25;10.60;;;9.00;97.00;;;;;;5039878;28;20037;-79
2022/04/29 04:54:22;;;;;;;18.58;11.50;;;9.10;96.90;;;;;;5042353;28;20126;-78
2022/04/29 04:56:48;;;;;;;14.00;10.40;;;9.20;96.80;;;;;;5046721;28;20041;-79
2022/04/29 04:59:13;;;;;;;13.20;9.43;;;9.30;96.70;;;;;;5038949;28;20034;-80
2022/04/29 05:01:39;;;;;;;15.93;10.68;;;9.40;96.60;;;;;;5032705;28;20571;-79
2022/04/29 05:04:05;;;;;;;14.07;10.13;;;9.50;96.50;;;;;;5035354;28;20029;-81
2022/04/29 05:06:30;;;;;;;17.35;10.75;;;9.50;96.50;;;;;;5048916;28;20082;-80
2022/04/29 05:08:56;;;;;;;16.55;9.98;;;9.60;96.50;;;;;;5043939;28;20411;-80
2022/04/29 05:11:21;;;;;;;15.77;10.52;;;9.70;96.40;;;;;;5037903;28;20039;-80
2022/04/29 05:13:47;;;;;;;15.80;10.27;;;9.80;96.40;;;;;;5034447;28;20523;-81
2022/04/29 05:16:13;;;;;;;16.08;11.70;;;9.90;96.30;;;;;;5042951;28;20028;-81
2022/04/29 05:18:39;;;;;;;18.05;11.02;;;10.00;96.20;;;;;;5033336;28;20037;-82
2022/04/29 05:21:04;;;;;;;15.65;9.90;;;10.10;96.10;;;;;;5032549;28;20378;-80
2022/04/29 05:23:30;;;;;;;15.73;10.68;;;10.20;96.10;;;;;;5058451;28;20020;-80
2022/04/29 05:25:55;;;;;;;15.00;10.50;;;10.30;96.00;;;;;;5038010;28;20460;-80
2022/04/29 05:28:21;;;;;;;17.27;11.30;;;10.40;95.90;;;;;;5042463;28;20070;-80
2022/04/29 05:30:47;;;;;;;13.48;9.15;;;10.60;95.70;;;;;;5042467;28;20098;-81
2022/04/29 05:33:12;;;;;;;12.60;9.43;;;10.70;95.40;;;;;;5055185;28;20025;-81
2022/04/29 05:35:39;;;;;;;15.32;9.20;;;10.80;95.10;;;;;;5046335;28;20028;-80
2022/04/29 05:38:05;;;;;;;16.15;9.45;;;10.90;94.90;;;;;;5048300;28;20043;-80
2022/04/29 05:43:15;;;;;;;12.80;8.68;;;11.00;93.70;;;;;;5048657;28;20031;-80
2022/04/29 05:45:41;;;;;;;14.00;8.15;;;11.10;93.60;;;;;;5046769;28;20028;-81
2022/04/29 05:48:07;;;;;;;16.75;8.75;;;11.20;93.60;;;;;;5047373;28;20029;-85
2022/04/29 05:50:32;;;;;;;14.02;8.60;;;11.40;93.50;;;;;;5048270;28;20033;-80
2022/04/29 05:52:58;;;;;;;11.88;8.52;;;11.50;93.40;;;;;;5047969;28;20033;-80
2022/04/29 05:55:23;;;;;;;15.68;9.80;;;11.60;93.50;;;;;;5046707;28;20035;-81
2022/04/29 05:57:49;;;;;;;13.27;8.23;;;11.70;93.40;;;;;;5041579;28;20592;-78
2022/04/29 06:00:15;;;;;;;14.32;9.57;;;11.90;93.40;;;;;;5047343;28;20466;-80
2022/04/29 06:02:44;;;;;;;13.25;8.23;;;12.00;93.10;;;;;;5046892;28;20055;-79
2022/04/29 06:05:10;;;;;;;14.05;8.20;;;12.10;92.80;;;;;;5039020;28;20034;-79
2022/04/29 06:07:35;;;;;;;13.98;8.80;;;12.20;92.70;;;;;;5028092;28;20025;-81
2022/04/29 06:10:01;;;;;;;10.25;7.32;;;12.30;92.70;;;;;;5044157;28;20095;-80
2022/04/29 06:12:26;;;;;;;13.55;7.72;;;12.40;92.70;;;;;;5047901;28;20060;-78
2022/04/29 06:14:52;;;;;;;17.45;9.05;;;12.60;92.30;;;;;;5039996;28;20043;-79
2022/04/29 06:17:18;;;;;;;15.77;8.88;;;12.60;91.40;;;;;;5042916;28;20037;-78
2022/04/29 06:19:43;;;;;;;16.92;8.85;;;12.70;91.00;;;;;;5040660;28;20032;-78
2022/04/29 06:22:09;;;;;;;12.05;7.63;;;12.70;90.80;;;;;;5046951;28;20029;-78
2022/04/29 06:24:34;;;;;;;11.98;7.00;;;12.80;90.50;;;;;;5045489;28;20028;-79
2022/04/29 06:27:01;;;;;;;20.52;7.78;;;12.90;90.40;;;;;;5047565;28;20025;-81
2022/04/29 06:29:27;;;;;;;11.73;7.35;;;13.10;90.90;;;;;;5048480;28;20056;-78
2022/04/29 06:31:53;;;;;;;11.98;7.32;;;13.20;90.80;;;;;;5046056;28;20071;-80
2022/04/29 06:34:18;;;;;;;10.70;6.38;;;13.30;90.50;;;;;;5031833;28;20036;-79
2022/04/29 06:36:44;;;;;;;11.90;7.43;;;13.40;90.20;;;;;;5027095;28;20486;-79
2022/04/29 06:39:09;;;;;;;10.55;7.25;;;13.50;89.80;;;;;;5048811;28;20470;-81
2022/04/29 06:41:36;;;;;;;23.27;8.27;;;13.60;89.10;;;;;;5051521;28;20387;-78
2022/04/29 06:44:02;;;;;;;8.38;6.80;;;13.70;88.90;;;;;;5050719;28;20021;-78
2022/04/29 06:46:27;;;;;;;14.63;7.47;;;13.60;87.20;;;;;;5050401;28;20033;-80
2022/04/29 06:48:54;;;;;;;16.70;7.57;;;13.70;87.30;;;;;;5051641;28;20036;-79
2022/04/29 06:51:20;;;;;;;15.57;6.45;;;13.80;88.30;;;;;;5041798;28;20017;-80
2022/04/29 06:53:45;;;;;;;12.57;7.50;;;13.80;87.60;;;;;;5052019;28;20036;-80
2022/04/29 06:56:11;;;;;;;9.02;6.15;;;13.90;86.30;;;;;;5039856;28;20058;-78
2022/04/29 06:58:36;;;;;;;13.70;6.88;;;14.00;85.30;;;;;;5041402;28;20047;-81
2022/04/29 07:01:02;;;;;;;15.40;6.38;;;14.10;86.00;;;;;;5046267;28;20017;-79
2022/04/29 07:03:28;;;;;;;13.10;6.65;;;14.30;85.40;;;;;;5042903;28;20033;-80
2022/04/29 07:05:54;;;;;;;23.25;7.90;;;14.40;84.80;;;;;;5030977;28;20117;-81
2022/04/29 07:08:21;;;;;;;15.07;5.97;;;14.60;85.30;;;;;;5044204;28;20021;-78
2022/04/29 07:10:46;;;;;;;14.82;6.15;;;14.80;85.00;;;;;;5051030;28;20646;-81
2022/04/29 07:13:12;;;;;;;9.32;5.88;;;15.10;83.60;;;;;;5050037;28;20021;-80
2022/04/29 07:15:43;;;;;;;8.80;4.97;;;15.30;83.40;;;;;;5029895;28;20053;-81
2022/04/29 07:18:11;;;;;;;7.78;5.20;;;15.50;81.80;;;;;;5031583;28;20026;-81
2022/04/29 07:20:37;;;;;;;9.48;5.47;;;15.60;80.00;;;;;;5046951;28;20025;-82
2022/04/29 07:23:02;;;;;;;13.60;4.90;;;15.90;80.90;;;;;;5051209;28;20103;-80
2022/04/29 07:25:28;;;;;;;9.40;5.43;;;16.00;79.30;;;;;;5038347;28;20038;-81
2022/04/29 07:27:54;;;;;;;12.50;5.57;;;16.20;78.30;;;;;;5029532;28;20033;-79
2022/04/29 07:30:19;;;;;;;18.23;5.70;;;16.40;77.00;;;;;;5029590;28;20059;-78
2022/04/29 07:32:45;;;;;;;8.68;4.65;;;16.50;77.70;;;;;;5029642;28;20017;-75
2022/04/29 07:43:23;;;;;;;10.50;5.35;;;16.60;77.70;;;;;;5050738;28;20556;-76
2022/04/29 07:45:51;;;;;;;6.53;4.40;;;16.80;77.00;;;;;;5044205;28;20026;-81
2022/04/29 07:48:16;;;;;;;9.90;4.30;;;16.90;76.60;;;;;;5044143;28;20108;-80
2022/04/29 07:50:42;;;;;;;9.23;4.40;;;17.00;73.20;;;;;;5049696;28;20178;-80
2022/04/29 07:53:08;;;;;;;12.88;4.68;;;17.10;73.00;;;;;;5050172;28;20037;-80
2022/04/29 07:55:35;;;;;;;9.27;4.80;;;17.10;71.90;;;;;;5048485;28;20037;-80
2022/04/29 07:58:03;;;;;;;7.10;3.90;;;16.90;73.70;;;;;;5049949;28;20024;-77
2022/04/29 08:00:31;;;;;;;9.10;5.20;;;17.00;74.50;;;;;;5049493;28;20045;-81
2022/04/29 08:02:57;;;;;;;10.00;5.53;;;17.20;75.60;;;;;;5046826;28;20032;-78
2022/04/29 08:05:22;;;;;;;9.18;5.78;;;17.20;74.40;;;;;;5039572;28;20523;-78
2022/04/29 08:07:48;;;;;;;9.80;5.45;;;17.20;73.70;;;;;;5042034;28;20045;-81
2022/04/29 08:10:13;;;;;;;6.57;5.03;;;17.30;73.10;;;;;;5041140;28;20172;-78
2022/04/29 08:12:39;;;;;;;11.20;5.28;;;17.30;73.40;;;;;;5040028;28;20036;-79
2022/04/29 08:15:05;;;;;;;9.68;5.20;;;17.30;73.40;;;;;;5048579;28;20435;-80
2022/04/29 08:17:31;;;;;;;13.50;4.82;;;17.40;73.50;;;;;;5046872;28;20040;-79
2022/04/29 08:19:58;;;;;;;6.93;4.50;;;17.50;73.10;;;;;;5037996;28;20028;-80
2022/04/29 08:22:23;;;;;;;9.20;4.65;;;17.70;74.10;;;;;;5029003;28;20022;-79
2022/04/29 08:24:49;;;;;;;11.40;4.97;;;18.00;70.80;;;;;;5042588;28;20032;-79
2022/04/29 08:27:14;;;;;;;12.35;4.82;;;18.20;71.70;;;;;;5043597;28;20031;-80
2022/04/29 08:29:40;;;;;;;7.38;4.10;;;18.30;70.10;;;;;;5049739;28;20091;-79
2022/04/29 08:32:06;;;;;;;8.18;4.57;;;18.30;69.90;;;;;;5044665;28;20055;-79
2022/04/29 08:34:33;;;;;;;7.00;4.10;;;18.30;68.20;;;;;;5032220;28;20040;-79
2022/04/29 08:37:03;;;;;;;5.93;3.35;;;18.40;70.00;;;;;;5028690;28;20374;-79
2022/04/29 08:39:29;;;;;;;8.70;4.43;;;18.30;67.40;;;;;;5037067;28;20052;-79
2022/04/29 08:41:57;;;;;;;8.15;3.80;;;18.00;67.60;;;;;;5049434;28;20021;-80
2022/04/29 08:44:25;;;;;;;6.53;3.22;;;18.00;68.40;;;;;;5049542;28;20024;-80
2022/04/29 08:46:51;;;;;;;5.88;3.17;;;18.20;67.50;;;;;;5047635;28;20039;-80
2022/04/29 08:49:17;;;;;;;6.38;3.53;;;18.40;68.30;;;;;;5032797;28;20030;-79
2022/04/29 08:51:44;;;;;;;4.40;3.10;;;18.60;68.20;;;;;;5036893;28;20734;-79
2022/04/29 08:58:36;;;;;;;3.75;3.00;;;18.90;64.60;;;;;;5037007;28;20044;-79
2022/04/29 08:59:40;;;;;;;4.22;2.10;;;19.20;64.40;;;;;;5048754;28;20039;-79
2022/04/29 09:02:05;;;;;;;7.60;3.40;;;19.20;60.70;;;;;;5048383;28;20355;-80
2022/04/29 09:04:31;;;;;;;5.55;2.22;;;19.20;62.30;;;;;;5048715;28;20032;-80
2022/04/29 09:06:56;;;;;;;4.68;2.75;;;19.30;62.90;;;;;;5044894;28;20124;-81
2022/04/29 09:09:22;;;;;;;5.07;2.45;;;19.40;59.40;;;;;;5048307;28;20029;-79
2022/04/29 09:11:48;;;;;;;3.75;2.40;;;19.40;60.30;;;;;;5044820;28;20040;-80
2022/04/29 09:14:20;;;;;;;3.78;2.45;;;19.40;60.50;;;;;;5044701;28;20381;-79
2022/04/29 09:16:48;;;;;;;4.97;2.53;;;19.40;60.20;;;;;;5036630;28;20028;-80
2022/04/29 09:19:30;;;;;;;5.13;2.33;;;19.40;59.30;;;;;;5034959;28;20053;-80
2022/04/29 09:22:07;;;;;;;4.65;2.58;;;19.40;60.50;;;;;;5048399;28;20029;-80
2022/04/29 09:24:36;;;;;;;6.30;2.35;;;19.40;60.10;;;;;;5048666;28;20021;-80
2022/04/29 09:27:04;;;;;;;4.22;2.35;;;19.40;61.70;;;;;;5048032;28;20509;-81
2022/04/29 09:29:39;;;;;;;4.05;1.75;;;19.40;58.50;;;;;;5048975;28;20021;-80
2022/04/29 09:32:05;;;;;;;6.90;2.60;;;19.40;59.30;;;;;;5049156;28;20359;-80
2022/04/29 09:34:45;;;;;;;4.50;1.92;;;19.50;58.70;;;;;;5047998;28;20025;-79
2022/04/29 09:37:16;;;;;;;4.30;2.25;;;19.60;60.40;;;;;;5036904;28;20116;-80
2022/04/29 09:40:00;;;;;;;6.50;1.88;;;19.80;59.30;;;;;;5042882;28;20025;-80
2022/04/29 09:42:39;;;;;;;3.60;2.08;;;19.90;59.00;;;;;;5048767;28;20347;-80
2022/04/29 09:45:19;;;;;;;3.28;1.70;;;20.00;59.20;;;;;;5048609;28;20063;-79
2022/04/29 09:47:44;;;;;;;5.57;2.45;;;20.00;58.10;;;;;;5049040;28;20028;-79
2022/04/29 09:50:10;;;;;;;12.95;3.05;;;20.00;57.40;;;;;;5048955;28;20025;-80
2022/04/29 09:52:40;;;;;;;3.90;2.95;;;20.00;58.50;;;;;;5047239;28;20086;-80
2022/04/29 09:55:14;;;;;;;8.32;2.17;;;20.00;61.40;;;;;;5046459;28;20021;-81
2022/04/29 09:57:52;;;;;;;4.65;2.20;;;20.20;62.70;;;;;;5047617;28;20021;-80
2022/04/29 10:00:18;;;;;;;4.57;2.28;;;20.40;60.30;;;;;;5048421;28;20458;-81
2022/04/29 10:02:46;;;;;;;6.47;3.17;;;20.50;59.10;;;;;;5048033;28;20033;-80
2022/04/29 10:05:12;;;;;;;5.05;2.85;;;20.70;56.50;;;;;;5047705;28;20033;-80
2022/04/29 10:07:39;;;;;;;9.52;2.47;;;20.90;57.10;;;;;;5045818;28;20025;-81
2022/04/29 10:10:05;;;;;;;3.95;2.47;;;20.90;56.20;;;;;;5047865;28;20033;-79
2022/04/29 10:12:32;;;;;;;6.93;3.03;;;20.70;57.10;;;;;;5047259;28;20028;-80
2022/04/29 10:15:06;;;;;;;6.60;2.80;;;20.80;59.30;;;;;;5047872;28;20025;-80
2022/04/29 10:23:07;;;;;;;4.35;2.08;;;21.00;56.70;;;;;;5046897;28;20734;-81
2022/04/29 10:25:35;;;;;;;5.18;2.25;;;21.10;57.70;;;;;;5047463;28;20202;-81
2022/04/29 10:28:02;;;;;;;4.80;2.47;;;21.10;56.40;;;;;;5028375;28;20112;-80
2022/04/29 10:30:30;;;;;;;3.58;2.30;;;21.20;57.10;;;;;;5029858;28;20025;-80
2022/04/29 10:33:10;;;;;;;4.30;2.72;;;21.20;58.20;;;;;;5027772;28;20092;-77
2022/04/29 10:35:49;;;;;;;4.38;2.47;;;21.30;55.10;;;;;;5026540;28;20168;-78
2022/04/29 10:38:17;;;;;;;4.85;2.30;;;21.30;55.70;;;;;;5038359;28;20485;-78
2022/04/29 10:40:44;;;;;;;3.10;2.35;;;21.30;56.50;;;;;;5046514;28;20021;-78
2022/04/29 10:43:13;;;;;;;4.65;2.83;;;21.30;55.90;;;;;;5045014;28;20134;-78
2022/04/29 10:46:05;;;;;;;3.90;2.15;;;21.30;56.00;;;;;;5040844;28;20037;-78
2022/04/29 10:48:31;;;;;;;5.03;2.90;;;21.10;55.20;;;;;;5043934;28;20111;-79
2022/04/29 10:50:58;;;;;;;5.20;2.58;;;21.10;55.50;;;;;;5038396;28;20029;-81
2022/04/29 10:53:24;;;;;;;8.77;2.58;;;21.10;55.90;;;;;;5035724;28;20032;-80
2022/04/29 10:55:50;;;;;;;5.25;3.47;;;21.00;55.70;;;;;;5033693;28;20040;-80
2022/04/29 10:58:21;;;;;;;6.22;3.40;;;20.80;56.30;;;;;;5031183;28;20390;-81
2022/04/29 11:01:14;;;;;;;6.07;3.65;;;20.70;57.90;;;;;;5035507;28;20114;-81
2022/04/29 11:03:47;;;;;;;12.15;4.10;;;20.70;59.10;;;;;;5044439;28;20039;-82
2022/04/29 11:06:13;;;;;;;;;;;20.80;57.00;;;;;;5032676;28;20025;-81
2022/04/29 11:08:40;;;;;;;9.02;3.72;;;20.80;58.40;;;;;;5047980;28;19912;-81
2022/04/29 11:11:06;;;;;;;8.88;3.72;;;20.80;57.60;;;;;;5044943;28;20035;-82
2022/04/29 11:13:36;;;;;;;3.72;3.33;;;20.80;58.60;;;;;;5046756;28;20021;-81
2022/04/29 11:16:08;;;;;;;4.88;3.85;;;20.90;59.00;;;;;;5041511;28;20047;-82
2022/04/29 11:18:34;;;;;;;5.88;3.17;;;20.90;60.70;;;;;;5043798;28;20889;-82
2022/04/29 11:24:40;;;;;;;6.18;3.92;;;21.00;58.50;;;;;;5060166;28;20029;-81
2022/04/29 11:26:47;;;;;;;6.68;3.60;;;21.20;58.70;;;;;;5043010;28;20102;-83
2022/04/29 11:29:13;;;;;;;7.70;3.53;;;21.30;57.60;;;;;;5043708;28;20024;-81
2022/04/29 11:31:40;;;;;;;5.32;3.10;;;21.20;59.10;;;;;;5045620;28;20027;-82
2022/04/29 11:34:10;;;;;;;6.75;3.13;;;21.40;59.40;;;;;;5060726;28;20021;-81
2022/04/29 11:36:37;;;;;;;5.07;2.90;;;21.60;61.80;;;;;;5056219;28;20465;-81
2022/04/29 11:39:12;;;;;;;4.82;2.78;;;21.80;55.10;;;;;;5055309;28;20432;-80
2022/04/29 11:41:50;;;;;;;6.72;3.67;;;21.90;54.80;;;;;;5066619;28;20029;-81
2022/04/29 11:44:15;;;;;;;5.85;3.30;;;21.70;57.00;;;;;;5050538;28;20032;-81
2022/04/29 11:46:50;;;;;;;7.57;3.78;;;21.80;55.70;;;;;;5049744;28;20032;-81
2022/04/29 11:49:28;;;;;;;5.38;3.15;;;21.70;54.30;;;;;;5053572;28;20020;-82
2022/04/29 11:51:53;;;;;;;5.60;3.78;;;21.50;54.40;;;;;;5058024;28;20388;-81
2022/04/29 11:54:19;;;;;;;4.78;2.85;;;21.30;55.20;;;;;;5061206;28;20025;-81
2022/04/29 11:56:44;;;;;;;6.28;3.08;;;21.20;54.40;;;;;;5069716;28;20419;-80
2022/04/29 11:59:11;;;;;;;3.67;2.42;;;21.30;57.90;;;;;;5070205;28;20070;-81
2022/04/29 12:01:37;;;;;;;4.55;3.20;;;21.40;57.30;;;;;;5069259;28;20030;-80
2022/04/29 12:04:04;;;;;;;5.88;2.80;;;21.60;56.60;;;;;;5058667;28;20025;-80
2022/04/29 12:06:30;;;;;;;6.15;3.50;;;21.60;53.80;;;;;;5051961;28;20025;-80
2022/04/29 12:08:56;;;;;;;5.93;2.95;;;21.50;55.40;;;;;;5055784;28;20030;-80
2022/04/29 12:11:23;;;;;;;4.20;2.60;;;21.50;55.20;;;;;;5051037;28;20469;-80
2022/04/29 12:13:49;;;;;;;6.63;3.58;;;21.50;56.10;;;;;;5050292;28;20031;-81
2022/04/29 12:16:15;;;;;;;6.75;3.53;;;21.40;56.90;;;;;;5058200;28;20032;-81
2022/04/29 12:18:46;;;;;;;8.95;2.72;;;21.40;56.10;;;;;;5045858;28;20030;-80
2022/04/29 12:21:19;;;;;;;7.53;2.30;;;21.40;54.70;;;;;;5029580;28;20029;-83
2022/04/29 12:23:45;;;;;;;5.10;2.47;;;21.50;54.90;;;;;;5036014;28;20142;-82
2022/04/29 12:26:10;;;;;;;3.22;2.40;;;21.60;53.80;;;;;;5045659;28;20025;-79
2022/04/29 12:28:37;;;;;;;5.00;2.35;;;21.70;54.00;;;;;;5043348;28;20036;-80
2022/04/29 12:36:53;;;;;;;5.13;2.10;;;21.90;53.60;;;;;;5047949;28;20063;-82
2022/04/29 12:39:27;;;;;;;4.28;2.53;;;21.80;54.50;;;;;;5049871;28;20079;-82
2022/04/29 12:42:03;;;;;;;3.88;2.40;;;21.80;51.80;;;;;;5041098;28;20021;-80
2022/04/29 12:45:04;;;;;;;3.72;2.28;;;21.70;50.80;;;;;;5054203;28;20056;-81
2022/04/29 12:47:40;;;;;;;4.25;2.13;;;21.70;52.40;;;;;;5048945;28;20052;-82
2022/04/29 12:50:31;;;;;;;5.07;2.75;;;21.70;51.00;;;;;;5049508;28;20024;-81
2022/04/29 12:53:07;;;;;;;6.97;2.97;;;21.70;52.50;;;;;;5040497;28;20051;-81
2022/04/29 12:55:37;;;;;;;8.02;2.67;;;21.70;51.80;;;;;;5051977;28;20032;-83
2022/04/29 12:58:15;;;;;;;7.63;2.15;;;21.70;50.90;;;;;;5051105;28;20579;-82
2022/04/29 13:00:48;;;;;;;6.97;2.10;;;21.90;53.00;;;;;;5048124;28;20025;-83
2022/04/29 13:03:17;;;;;;;4.70;2.03;;;22.00;53.00;;;;;;5049108;28;20029;-80
2022/04/29 13:05:43;;;;;;;4.22;2.30;;;22.20;50.20;;;;;;5048280;28;20033;-82
2022/04/29 13:08:09;;;;;;;4.57;1.92;;;22.20;52.10;;;;;;5047628;28;20622;-82
2022/04/29 13:10:52;;;;;;;4.88;1.83;;;22.30;53.10;;;;;;5050042;28;20035;-82